Sutton, Vermont
Current Conditions -  °F | °C
As of 8:55 AM on Thursday 30 Oct 2014 (Local Time) from KCDA Reporting Station
Broken Clouds Broken Clouds  
Wind Chill: 39°   Ceiling: 4000
Heat Index: 42°   Visibility: 10mi
Dew Point: 37°   Wind: 5mph
Humidity: 83%   Direction: 240°WSW
Pressure: 29.92"   Gusts: NA
Location:  44.63°N, 72.03°W
Report Text: KCDA 301255Z AUTO 24004KT 10SM SCT024 SCT032 BKN040 06/03 A2992 RMK AO2 T00570030
Loading
Personal Weather Stations






























Interactive Weather Map
Tropical Storm Tracking
New forecast layout! Learn more

10-Day Weather Forecast

Advertisements
Track Severe Weather on mobile